createdAt,value
2024-03-09T00:00:26.346Z,100408.92
2024-03-09T00:02:55.239Z,100412.77
2024-03-09T00:05:25.652Z,100411.11
2024-03-09T00:07:56.557Z,100404.50
2024-03-09T00:10:28.096Z,100401.17
2024-03-09T00:12:56.662Z,100397.06
2024-03-09T00:15:27.192Z,100387.19
2024-03-09T00:17:55.599Z,100383.81
2024-03-09T00:20:26.368Z,100384.86
2024-03-09T00:22:54.394Z,100374.70
2024-03-09T00:25:24.736Z,100382.24
2024-03-09T00:27:55.848Z,100371.77
2024-03-09T00:30:23.566Z,100374.46
2024-03-09T00:32:55.315Z,100368.25
2024-03-09T00:35:23.643Z,100365.11
2024-03-09T00:37:50.529Z,100364.61
2024-03-09T00:40:18.660Z,100368.65
2024-03-09T00:42:46.763Z,100361.23
2024-03-09T00:45:18.030Z,100365.19
2024-03-09T00:47:48.308Z,100369.97
2024-03-09T00:50:17.127Z,100362.23
2024-03-09T00:52:44.928Z,100350.39
2024-03-09T00:55:11.835Z,100341.50
2024-03-09T00:57:39.296Z,100337.27
2024-03-09T01:00:17.101Z,100330.57
2024-03-09T01:02:45.554Z,100327.20
2024-03-09T01:05:13.049Z,100323.77
2024-03-09T01:07:40.788Z,100318.48
2024-03-09T01:10:09.090Z,100315.11
2024-03-09T01:12:36.860Z,100314.05
2024-03-09T01:15:04.987Z,100316.47
2024-03-09T01:17:31.984Z,100317.14
2024-03-09T01:19:59.133Z,100310.23
2024-03-09T01:22:26.275Z,100312.50
2024-03-09T01:24:56.354Z,100313.98
2024-03-09T01:27:23.247Z,100308.24
2024-03-09T01:29:50.091Z,100305.10
2024-03-09T01:32:17.067Z,100303.68
2024-03-09T01:34:44.236Z,100305.35
2024-03-09T01:37:11.840Z,100299.78
2024-03-09T01:39:39.716Z,100301.81
2024-03-09T01:42:09.812Z,100293.64
2024-03-09T01:44:37.053Z,100286.83
2024-03-09T01:47:10.490Z,100284.59
2024-03-09T01:49:37.897Z,100282.64
2024-03-09T01:52:05.898Z,100276.08
2024-03-09T01:54:35.932Z,100271.97
2024-03-09T01:57:03.192Z,100265.91
2024-03-09T01:59:33.372Z,100261.63
2024-03-09T02:02:02.952Z,100256.05
2024-03-09T02:04:32.075Z,100255.80
2024-03-09T02:07:00.133Z,100251.92
2024-03-09T02:09:27.136Z,100252.30
2024-03-09T02:11:54.700Z,100255.67
2024-03-09T02:14:23.257Z,100259.58
2024-03-09T02:16:51.508Z,100259.73
2024-03-09T02:19:18.519Z,100263.09
2024-03-09T02:21:47.457Z,100259.92
2024-03-09T02:24:19.934Z,100254.66
2024-03-09T02:26:48.899Z,100251.43
2024-03-09T02:29:16.243Z,100246.94
2024-03-09T02:31:43.249Z,100242.64
2024-03-09T02:34:10.099Z,100241.11
2024-03-09T02:36:40.157Z,100233.52
2024-03-09T02:39:10.978Z,100236.73
2024-03-09T02:41:38.391Z,100232.48
2024-03-09T02:44:05.721Z,100238.79
2024-03-09T02:46:32.953Z,100240.79
2024-03-09T02:48:59.794Z,100243.54
2024-03-09T02:51:27.943Z,100242.23
2024-03-09T02:53:54.990Z,100243.52
2024-03-09T02:56:22.027Z,100246.58
2024-03-09T02:58:50.006Z,100250.71
2024-03-09T03:01:21.614Z,100254.34
2024-03-09T03:04:06.872Z,100253.71
2024-03-09T03:06:34.120Z,100251.72
2024-03-09T03:09:12.577Z,100255.17
2024-03-09T03:11:42.632Z,100250.35
2024-03-09T03:14:11.126Z,100243.93
2024-03-09T03:16:38.934Z,100242.95
2024-03-09T03:19:08.183Z,100247.30
2024-03-09T03:21:35.644Z,100243.15
2024-03-09T03:24:03.637Z,100239.60
2024-03-09T03:26:31.612Z,100237.44
2024-03-09T03:28:58.898Z,100242.48
2024-03-09T03:31:27.119Z,100245.91
2024-03-09T03:33:53.984Z,100251.55
2024-03-09T03:36:21.718Z,100252.05
2024-03-09T03:38:49.331Z,100252.02
2024-03-09T03:41:18.408Z,100253.56
2024-03-09T03:43:45.867Z,100255.77
2024-03-09T03:46:14.509Z,100247.63
2024-03-09T03:48:46.527Z,100240.95
2024-03-09T03:51:15.002Z,100240.23
2024-03-09T03:53:43.302Z,100237.83
2024-03-09T03:56:10.761Z,100238.02
2024-03-09T03:58:39.039Z,100244.36
2024-03-09T04:01:06.790Z,100240.07
2024-03-09T04:03:34.057Z,100245.10
2024-03-09T04:06:01.417Z,100249.53
2024-03-09T04:08:28.753Z,100248.32
2024-03-09T04:10:58.814Z,100251.57
2024-03-09T04:13:26.455Z,100249.38
2024-03-09T04:15:54.298Z,100249.30
2024-03-09T04:18:23.345Z,100246.95
2024-03-09T04:20:51.297Z,100250.17
2024-03-09T04:23:18.736Z,100251.58
2024-03-09T04:25:51.871Z,100254.08
2024-03-09T04:28:22.784Z,100251.95
2024-03-09T04:30:51.110Z,100254.02
2024-03-09T04:33:20.621Z,100245.43
2024-03-09T04:35:51.053Z,100239.02
2024-03-09T04:38:18.359Z,100230.06
2024-03-09T04:40:50.891Z,100218.98
2024-03-09T04:43:19.407Z,100216.86
2024-03-09T04:45:52.523Z,100226.13
2024-03-09T04:48:20.337Z,100231.66
2024-03-09T04:50:48.835Z,100225.64
2024-03-09T04:53:17.945Z,100224.10
2024-03-09T04:55:49.866Z,100218.95
2024-03-09T04:58:19.226Z,100221.26
2024-03-09T05:00:46.965Z,100220.46
2024-03-09T05:03:14.516Z,100219.29
2024-03-09T05:05:42.038Z,100222.45
2024-03-09T05:08:09.853Z,100225.19
2024-03-09T05:10:38.556Z,100230.38
2024-03-09T05:13:08.076Z,100234.99
2024-03-09T05:15:38.911Z,100236.44
2024-03-09T05:18:11.265Z,100234.23
2024-03-09T05:20:38.851Z,100229.51
2024-03-09T05:23:13.412Z,100226.15
2024-03-09T05:25:43.270Z,100219.66
2024-03-09T05:28:14.874Z,100214.23
2024-03-09T05:30:43.528Z,100214.38
2024-03-09T05:33:11.035Z,100211.02
2024-03-09T05:35:38.340Z,100211.79
2024-03-09T05:38:06.599Z,100215.65
2024-03-09T05:40:35.617Z,100220.40
2024-03-09T05:43:08.081Z,100217.64
2024-03-09T05:45:36.816Z,100217.84
2024-03-09T05:48:04.144Z,100222.13
2024-03-09T05:50:31.731Z,100220.89
2024-03-09T05:53:02.887Z,100221.77
2024-03-09T05:55:30.585Z,100219.94
2024-03-09T05:57:58.574Z,100218.86
2024-03-09T06:00:29.524Z,100221.89
2024-03-09T06:02:58.325Z,100223.90
2024-03-09T06:05:32.624Z,100222.97
2024-03-09T06:08:01.043Z,100221.97
2024-03-09T06:10:29.420Z,100216.08
2024-03-09T06:12:56.448Z,100214.18
2024-03-09T06:15:24.496Z,100209.79
2024-03-09T06:17:55.770Z,100212.89
2024-03-09T06:20:23.054Z,100212.86
2024-03-09T06:22:50.107Z,100216.20
2024-03-09T06:25:24.982Z,100221.56
2024-03-09T06:27:56.768Z,100224.40
2024-03-09T06:30:29.299Z,100217.12
2024-03-09T06:33:00.174Z,100217.01
2024-03-09T06:35:27.676Z,100216.98
2024-03-09T06:38:06.720Z,100218.61
2024-03-09T06:40:35.851Z,100223.11
2024-03-09T06:43:07.035Z,100223.29
2024-03-09T06:45:35.211Z,100218.95
2024-03-09T06:48:02.355Z,100227.44
2024-03-09T06:50:30.946Z,100232.75
2024-03-09T06:52:57.875Z,100239.39
2024-03-09T06:55:27.037Z,100240.92
2024-03-09T06:57:54.923Z,100242.11
2024-03-09T07:00:22.736Z,100246.16
2024-03-09T07:02:51.299Z,100245.23
2024-03-09T07:05:18.912Z,100247.30
2024-03-09T07:07:46.202Z,100246.50
2024-03-09T07:10:13.523Z,100246.45
2024-03-09T07:12:42.330Z,100253.02
2024-03-09T07:15:18.083Z,100249.69
2024-03-09T07:17:49.967Z,100248.95
2024-03-09T07:20:19.007Z,100248.73
2024-03-09T07:22:49.844Z,100246.94
2024-03-09T07:25:25.266Z,100245.48
2024-03-09T07:27:54.107Z,100243.60
2024-03-09T07:30:21.201Z,100240.84
2024-03-09T07:32:50.837Z,100241.58
2024-03-09T07:35:20.396Z,100240.23
2024-03-09T07:37:57.004Z,100245.00
2024-03-09T07:40:27.394Z,100243.52
2024-03-09T07:42:55.235Z,100245.90
2024-03-09T07:45:31.611Z,100242.94
2024-03-09T07:48:00.909Z,100238.31
2024-03-09T07:50:29.544Z,100240.38
2024-03-09T07:52:57.866Z,100238.80
2024-03-09T07:55:27.156Z,100236.77
2024-03-09T07:58:12.882Z,100236.38
2024-03-09T08:00:47.035Z,100239.09
2024-03-09T08:03:14.576Z,100242.90
2024-03-09T08:05:42.878Z,100242.95
2024-03-09T08:08:14.274Z,100243.65
2024-03-09T08:10:49.521Z,100243.52
2024-03-09T08:13:18.807Z,100243.17
2024-03-09T08:15:46.875Z,100243.39
2024-03-09T08:18:13.833Z,100242.02
2024-03-09T08:20:41.070Z,100242.20
2024-03-09T08:23:08.432Z,100239.13
2024-03-09T08:25:35.683Z,100244.10
2024-03-09T08:28:03.083Z,100248.88
2024-03-09T08:30:32.322Z,100253.35
2024-03-09T08:33:01.937Z,100259.81
2024-03-09T08:35:31.141Z,100258.80
2024-03-09T08:37:58.236Z,100257.55
2024-03-09T08:40:27.368Z,100253.83
2024-03-09T08:42:54.577Z,100256.98
2024-03-09T08:45:30.742Z,100258.43
2024-03-09T08:47:58.385Z,100263.34
2024-03-09T08:50:29.086Z,100264.41
2024-03-09T08:52:57.030Z,100274.38
2024-03-09T08:55:24.432Z,100279.71
2024-03-09T08:57:51.497Z,100282.13
2024-03-09T09:00:26.615Z,100287.52
2024-03-09T09:02:58.559Z,100287.73
2024-03-09T09:05:29.165Z,100286.75
2024-03-09T09:07:56.989Z,100290.73
2024-03-09T09:10:26.938Z,100288.53
2024-03-09T09:12:55.792Z,100291.71
2024-03-09T09:15:26.119Z,100291.27
2024-03-09T09:17:55.040Z,100292.44
2024-03-09T09:20:22.409Z,100288.20
2024-03-09T09:22:49.896Z,100288.30
2024-03-09T09:25:20.738Z,100284.52
2024-03-09T09:27:47.550Z,100276.13
2024-03-09T09:30:14.485Z,100276.30
2024-03-09T09:32:43.353Z,100275.77
2024-03-09T09:35:11.319Z,100274.90
2024-03-09T09:37:38.400Z,100276.30
2024-03-09T09:40:08.775Z,100277.17
2024-03-09T09:42:37.082Z,100278.23
2024-03-09T09:45:06.482Z,100277.59
2024-03-09T09:47:36.633Z,100282.08
2024-03-09T09:50:05.010Z,100282.99
2024-03-09T09:52:35.185Z,100282.97
2024-03-09T09:55:03.651Z,100280.16
2024-03-09T09:57:32.740Z,100279.23
2024-03-09T09:59:59.858Z,100277.67
2024-03-09T10:02:26.908Z,100278.16
2024-03-09T10:04:55.568Z,100278.46
2024-03-09T10:07:23.208Z,100276.73
2024-03-09T10:09:51.010Z,100276.11
2024-03-09T10:12:22.781Z,100278.04
2024-03-09T10:14:50.782Z,100277.75
2024-03-09T10:17:21.038Z,100275.75
2024-03-09T10:19:52.209Z,100274.14
2024-03-09T10:22:19.402Z,100273.51
2024-03-09T10:24:58.057Z,100273.21
2024-03-09T10:27:29.123Z,100274.46
2024-03-09T10:30:15.222Z,100275.65
2024-03-09T10:32:45.418Z,100278.45
2024-03-09T10:35:13.413Z,100277.42
2024-03-09T10:37:42.221Z,100277.74
2024-03-09T10:40:14.367Z,100278.27
2024-03-09T10:42:47.603Z,100276.82
2024-03-09T10:45:16.820Z,100274.36
2024-03-09T10:47:55.750Z,100271.27
2024-03-09T10:50:29.965Z,100270.53
2024-03-09T10:53:09.704Z,100263.46
2024-03-09T10:56:01.087Z,100254.46
2024-03-09T10:58:28.836Z,100249.49
2024-03-09T11:00:56.216Z,100238.64
2024-03-09T11:03:25.395Z,100232.13
2024-03-09T11:05:56.485Z,100224.00
2024-03-09T11:08:24.844Z,100224.41
2024-03-09T11:10:52.830Z,100224.42
2024-03-09T11:13:20.478Z,100220.38
2024-03-09T11:15:53.691Z,100211.70
2024-03-09T11:18:24.093Z,100210.54
2024-03-09T11:21:02.112Z,100211.91
2024-03-09T11:23:34.582Z,100212.61
2024-03-09T11:26:04.324Z,100205.03
2024-03-09T11:28:56.958Z,100203.09
2024-03-09T11:31:29.665Z,100202.70
2024-03-09T11:34:17.719Z,100198.30
2024-03-09T11:36:53.159Z,100196.11
2024-03-09T11:39:23.513Z,100196.18
2024-03-09T11:41:52.070Z,100200.55
2024-03-09T11:44:23.841Z,100200.11
2024-03-09T11:46:51.735Z,100193.91
2024-03-09T11:49:18.613Z,100192.27
2024-03-09T11:51:48.703Z,100195.13
2024-03-09T11:54:20.318Z,100193.45
2024-03-09T11:56:47.560Z,100193.11
2024-03-09T11:59:15.653Z,100190.10
2024-03-09T12:01:43.047Z,100193.71
2024-03-09T12:04:11.549Z,100192.26
2024-03-09T12:06:43.258Z,100191.29
2024-03-09T12:09:16.661Z,100194.52
2024-03-09T12:11:53.463Z,100197.82
2024-03-09T12:14:21.617Z,100194.52
2024-03-09T12:16:52.655Z,100197.30
2024-03-09T12:19:20.289Z,100200.66
2024-03-09T12:21:47.990Z,100204.27
2024-03-09T12:24:15.349Z,100206.35
2024-03-09T12:26:42.855Z,100210.48
2024-03-09T12:29:14.169Z,100211.07
2024-03-09T12:31:42.199Z,100217.09
2024-03-09T12:34:11.987Z,100216.27
2024-03-09T12:36:50.470Z,100212.38
2024-03-09T12:39:18.068Z,100208.81
2024-03-09T12:41:52.532Z,100205.16
2024-03-09T12:44:19.761Z,100206.27
2024-03-09T12:46:48.466Z,100205.70
2024-03-09T12:49:15.458Z,100212.84
2024-03-09T12:51:44.015Z,100216.02
2024-03-09T12:54:11.503Z,100215.60
2024-03-09T12:56:40.595Z,100213.54
2024-03-09T12:59:12.359Z,100213.54
2024-03-09T13:01:39.808Z,100213.34
2024-03-09T13:04:10.344Z,100210.91
2024-03-09T13:06:42.764Z,100205.40
2024-03-09T13:09:12.219Z,100199.91
2024-03-09T13:11:39.638Z,100198.95
2024-03-09T13:14:07.536Z,100193.98
2024-03-09T13:16:35.078Z,100192.37
2024-03-09T13:19:02.312Z,100191.80
2024-03-09T13:21:29.173Z,100194.91
2024-03-09T13:23:57.438Z,100197.31
2024-03-09T13:26:25.121Z,100195.89
2024-03-09T13:29:31.396Z,100189.59
2024-03-09T13:32:03.382Z,100175.16
2024-03-09T13:34:32.407Z,100166.33
2024-03-09T13:37:00.484Z,100162.15
2024-03-09T13:39:36.579Z,100154.48
2024-03-09T13:42:10.507Z,100151.83
2024-03-09T13:44:38.193Z,100154.95
2024-03-09T13:47:07.052Z,100156.14
2024-03-09T13:49:34.572Z,100154.83
2024-03-09T13:52:01.575Z,100159.35
2024-03-09T13:54:30.513Z,100160.94
2024-03-09T13:56:57.271Z,100159.36
2024-03-09T13:59:25.248Z,100159.52
2024-03-09T14:01:52.347Z,100164.32
2024-03-09T14:04:25.157Z,100166.95
2024-03-09T14:07:06.602Z,100165.80
2024-03-09T14:09:47.193Z,100167.77
2024-03-09T14:12:17.139Z,100165.96
2024-03-09T14:14:44.148Z,100165.29
2024-03-09T14:17:11.025Z,100167.04
2024-03-09T14:19:40.296Z,100163.73
2024-03-09T14:22:07.535Z,100162.79
2024-03-09T14:24:34.369Z,100164.34
2024-03-09T14:27:01.209Z,100170.00
2024-03-09T14:29:29.507Z,100169.13
2024-03-09T14:31:56.744Z,100169.10
2024-03-09T14:34:23.688Z,100170.46
2024-03-09T14:36:50.975Z,100169.80
2024-03-09T14:39:18.779Z,100163.80
2024-03-09T14:41:45.844Z,100168.83
2024-03-09T14:44:14.397Z,100167.96
2024-03-09T14:46:42.047Z,100164.72
2024-03-09T14:49:10.923Z,100157.66
2024-03-09T14:51:41.026Z,100152.70
2024-03-09T14:54:07.818Z,100154.80
2024-03-09T14:56:34.663Z,100150.84
2024-03-09T14:59:11.945Z,100145.86
2024-03-09T15:01:39.005Z,100144.11
2024-03-09T15:04:09.660Z,100143.31
2024-03-09T15:06:41.429Z,100135.97
2024-03-09T15:09:22.366Z,100137.50
2024-03-09T15:11:54.302Z,100132.15
2024-03-09T15:14:24.590Z,100127.96
2024-03-09T15:16:51.798Z,100121.52
2024-03-09T15:19:19.836Z,100119.77
2024-03-09T15:21:46.692Z,100118.55
2024-03-09T15:24:13.505Z,100113.54
2024-03-09T15:26:44.745Z,100113.45
2024-03-09T15:29:15.720Z,100117.23
2024-03-09T15:31:45.562Z,100113.74
2024-03-09T15:34:12.542Z,100115.25
2024-03-09T15:36:40.845Z,100111.62
2024-03-09T15:39:08.898Z,100110.01
2024-03-09T15:41:35.894Z,100100.98
2024-03-09T15:44:03.380Z,100096.45
2024-03-09T15:46:30.905Z,100098.40
2024-03-09T15:48:58.500Z,100102.30
2024-03-09T15:51:25.299Z,100094.08
2024-03-09T15:53:52.702Z,100084.57
2024-03-09T15:56:22.716Z,100081.36
2024-03-09T15:58:50.209Z,100085.42
2024-03-09T16:01:23.358Z,100092.22
2024-03-09T16:03:51.274Z,100094.83
2024-03-09T16:06:18.299Z,100095.25
2024-03-09T16:08:45.188Z,100089.14
2024-03-09T16:11:12.115Z,100091.07
2024-03-09T16:13:39.266Z,100095.13
2024-03-09T16:16:15.188Z,100097.48
2024-03-09T16:18:43.072Z,100091.56
2024-03-09T16:21:10.445Z,100092.73
2024-03-09T16:23:40.132Z,100096.02
2024-03-09T16:26:08.066Z,100100.56
2024-03-09T16:28:38.041Z,100099.21
2024-03-09T16:31:05.828Z,100102.02
2024-03-09T16:33:34.375Z,100104.82
2024-03-09T16:36:03.486Z,100102.82
2024-03-09T16:38:30.869Z,100105.27
2024-03-09T16:40:58.002Z,100107.40
2024-03-09T16:43:32.318Z,100109.92
2024-03-09T16:46:06.967Z,100108.45
2024-03-09T16:48:36.624Z,100114.35
2024-03-09T16:51:08.783Z,100120.25
2024-03-09T16:53:40.617Z,100118.54
2024-03-09T16:56:09.527Z,100123.80
2024-03-09T16:58:36.598Z,100125.95
2024-03-09T17:01:06.101Z,100119.25
2024-03-09T17:03:34.181Z,100115.48
2024-03-09T17:06:03.985Z,100115.57
2024-03-09T17:08:31.361Z,100114.38
2024-03-09T17:10:58.901Z,100119.46
2024-03-09T17:13:26.269Z,100120.81
2024-03-09T17:15:53.237Z,100120.00
2024-03-09T17:18:23.224Z,100118.15
2024-03-09T17:20:54.067Z,100116.08
2024-03-09T17:23:22.620Z,100110.86
2024-03-09T17:25:50.657Z,100114.60
2024-03-09T17:28:21.786Z,100111.34
2024-03-09T17:30:50.121Z,100113.44
2024-03-09T17:33:18.007Z,100115.57
2024-03-09T17:35:45.428Z,100113.77
2024-03-09T17:38:12.497Z,100113.80
2024-03-09T17:40:46.302Z,100118.23
2024-03-09T17:43:13.267Z,100118.17
2024-03-09T17:45:40.293Z,100114.84
2024-03-09T17:48:09.330Z,100115.48
2024-03-09T17:50:37.459Z,100113.89
2024-03-09T17:53:06.688Z,100109.63
2024-03-09T17:55:34.251Z,100113.77
2024-03-09T17:58:09.838Z,100113.20
2024-03-09T18:00:38.691Z,100112.72
2024-03-09T18:03:07.537Z,100114.77
2024-03-09T18:05:35.930Z,100111.63
2024-03-09T18:08:11.795Z,100116.33
2024-03-09T18:10:43.829Z,100118.44
2024-03-09T18:13:13.686Z,100117.82
2024-03-09T18:15:44.409Z,100121.13
2024-03-09T18:18:12.540Z,100121.29
2024-03-09T18:20:44.519Z,100119.98
2024-03-09T18:23:12.418Z,100123.91
2024-03-09T18:25:39.885Z,100122.46
2024-03-09T18:28:09.868Z,100118.77
2024-03-09T18:30:37.342Z,100116.05
2024-03-09T18:33:10.151Z,100121.98
2024-03-09T18:35:39.057Z,100129.21
2024-03-09T18:38:07.500Z,100129.65
2024-03-09T18:40:34.682Z,100130.42
2024-03-09T18:43:03.645Z,100131.45
2024-03-09T18:45:34.368Z,100135.47
2024-03-09T18:48:02.488Z,100140.16
2024-03-09T18:50:29.676Z,100140.38
2024-03-09T18:53:01.307Z,100138.27
2024-03-09T18:55:30.958Z,100141.11
2024-03-09T18:57:58.778Z,100139.09
2024-03-09T19:00:31.799Z,100139.20
2024-03-09T19:03:00.592Z,100139.29
2024-03-09T19:05:28.615Z,100138.06
2024-03-09T19:07:57.276Z,100140.08
2024-03-09T19:10:25.071Z,100141.91
2024-03-09T19:12:53.028Z,100141.71
2024-03-09T19:15:21.105Z,100144.44
2024-03-09T19:17:51.163Z,100143.35
2024-03-09T19:20:22.318Z,100145.65
2024-03-09T19:22:49.570Z,100142.05
2024-03-09T19:25:17.392Z,100143.24
2024-03-09T19:27:47.710Z,100138.73
2024-03-09T19:30:17.288Z,100134.68
2024-03-09T19:32:51.747Z,100134.30
2024-03-09T19:35:26.467Z,100133.95
2024-03-09T19:37:59.142Z,100139.17
2024-03-09T19:40:28.190Z,100141.91
2024-03-09T19:42:56.308Z,100140.99
2024-03-09T19:45:24.570Z,100138.56
2024-03-09T19:47:53.035Z,100134.95
2024-03-09T19:50:24.244Z,100134.40
2024-03-09T19:52:52.637Z,100136.52
2024-03-09T19:55:21.075Z,100141.70
2024-03-09T19:57:49.328Z,100141.21
2024-03-09T20:00:24.925Z,100142.05
2024-03-09T20:02:53.617Z,100137.32
2024-03-09T20:05:26.490Z,100133.11
2024-03-09T20:07:56.816Z,100126.09
2024-03-09T20:10:25.636Z,100131.48
2024-03-09T20:12:56.041Z,100128.32
2024-03-09T20:15:23.057Z,100128.16
2024-03-09T20:17:57.430Z,100130.83
2024-03-09T20:20:26.191Z,100134.86
2024-03-09T20:22:55.730Z,100134.91
2024-03-09T20:25:24.722Z,100131.67
2024-03-09T20:27:56.487Z,100133.08
2024-03-09T20:30:24.203Z,100130.95
2024-03-09T20:32:52.947Z,100124.45
2024-03-09T20:35:21.221Z,100123.53
2024-03-09T20:37:49.480Z,100122.80
2024-03-09T20:40:17.486Z,100124.16
2024-03-09T20:42:50.438Z,100120.02
2024-03-09T20:45:19.009Z,100115.86
2024-03-09T20:47:46.895Z,100115.31
2024-03-09T20:50:21.657Z,100111.69
2024-03-09T20:52:54.292Z,100112.96
2024-03-09T20:55:22.357Z,100109.02
2024-03-09T20:57:49.286Z,100107.89
2024-03-09T21:00:23.740Z,100111.95
2024-03-09T21:02:52.075Z,100106.77
2024-03-09T21:05:19.874Z,100105.36
2024-03-09T21:07:47.387Z,100104.15
2024-03-09T21:10:14.956Z,100101.09
2024-03-09T21:12:42.874Z,100099.95
2024-03-09T21:15:10.891Z,100098.77
2024-03-09T21:17:38.637Z,100099.67
2024-03-09T21:20:13.270Z,100103.98
2024-03-09T21:22:40.676Z,100105.23
2024-03-09T21:25:11.921Z,100105.27
2024-03-09T21:27:43.672Z,100096.04
2024-03-09T21:30:14.517Z,100092.85
2024-03-09T21:32:44.457Z,100091.00
2024-03-09T21:35:14.880Z,100089.15
2024-03-09T21:37:45.153Z,100080.84
2024-03-09T21:40:14.451Z,100079.85
2024-03-09T21:42:48.997Z,100073.05
2024-03-09T21:45:16.076Z,100068.48
2024-03-09T21:47:49.916Z,100071.23
2024-03-09T21:50:22.835Z,100065.94
2024-03-09T21:52:52.076Z,100062.48
2024-03-09T21:55:19.917Z,100059.59
2024-03-09T21:57:46.787Z,100062.17
2024-03-09T22:00:25.033Z,100062.33
2024-03-09T22:02:57.385Z,100062.48
2024-03-09T22:05:27.316Z,100065.11
2024-03-09T22:07:55.230Z,100061.96
2024-03-09T22:10:22.502Z,100059.70
2024-03-09T22:12:51.929Z,100056.77
2024-03-09T22:15:18.982Z,100051.17
2024-03-09T22:17:46.988Z,100047.83
2024-03-09T22:20:14.431Z,100043.11
2024-03-09T22:22:47.881Z,100024.05
2024-03-09T22:25:16.501Z,100018.68
2024-03-09T22:27:46.846Z,100014.27
2024-03-09T22:30:13.931Z,100012.38
2024-03-09T22:32:42.516Z,100018.91
2024-03-09T22:35:17.578Z,100017.31
2024-03-09T22:37:45.575Z,100005.34
2024-03-09T22:40:14.905Z,100006.05
2024-03-09T22:42:42.393Z,99997.23
2024-03-09T22:45:12.728Z,99991.45
2024-03-09T22:47:45.373Z,99988.08
2024-03-09T22:50:15.130Z,99975.14
2024-03-09T22:52:42.646Z,99973.66
2024-03-09T22:55:10.265Z,99970.68
2024-03-09T22:57:37.159Z,99968.27
2024-03-09T23:00:06.131Z,99962.88
2024-03-09T23:02:34.666Z,99959.23
2024-03-09T23:05:02.132Z,99958.83
2024-03-09T23:07:29.681Z,99952.17
2024-03-09T23:09:58.301Z,99955.52
2024-03-09T23:12:25.328Z,99955.91
2024-03-09T23:14:52.220Z,99955.41
2024-03-09T23:17:20.680Z,99958.48
2024-03-09T23:19:48.258Z,99959.59
2024-03-09T23:22:15.140Z,99958.99
2024-03-09T23:24:41.953Z,99962.65
2024-03-09T23:27:09.523Z,99964.08
2024-03-09T23:29:36.350Z,99959.06
2024-03-09T23:32:05.815Z,99959.58
2024-03-09T23:34:33.072Z,99958.41
2024-03-09T23:36:59.880Z,99951.41
2024-03-09T23:39:26.962Z,99946.11
2024-03-09T23:41:53.926Z,99950.29
2024-03-09T23:44:21.096Z,99949.12
2024-03-09T23:46:48.147Z,99944.24
2024-03-09T23:49:15.908Z,99948.44
2024-03-09T23:51:46.032Z,99946.90
2024-03-09T23:54:13.371Z,99944.40
2024-03-09T23:56:40.990Z,99942.10
2024-03-09T23:59:09.110Z,99937.09
